Terminal Aerodrome Forecast
Issued by NWS

Home | Current Version | Previous Version | Text Only | Print | Product List | Glossary On
Versions: 1 2 3 4 5 6 7 8 9 10 11 12 13 14 15 16 17
000
FTUS43 KJKL 220715 AAA
TAFSJS
TAF AMD
KSJS 220715Z 2207/2306 VRB05KT 1/2SM FG OVC003
     FM220800 VRB04KT 1SM BR OVC003 WS020/20030KT
     FM221500 VRB05KT P6SM SHRA BKN003 OVC008
     FM221700 VRB05KT 6SM BR VCSH SCT003 OVC015
     FM230300 VRB03KT P6SM BKN015=

USA.gov is the U.S. government's official web portal to all federal, state and local government web resources and services.